Time;durP1;ratioP1;P1;durP2;ratioP2;P2;SDS_P1;SDS_P2;PMS_P1;PMS_P2;Temp;Humidity;BMP_temperature;BMP_pressure;BME280_temperature;BME280_humidity;BME280_pressure;Samples;Min_cycle;Max_cycle;Signal;HPM_P1;HPM_P2
2022/08/19 00:00:54;;;;;;;14.57;11.23;;;;;;;22.30;100.00;99580.97;31168008;28;20054;-75
2022/08/19 00:15:57;;;;;;;15.07;11.27;;;;;;;22.03;100.00;99596.41;31182649;28;20053;-75
2022/08/19 00:30:59;;;;;;;19.80;12.17;;;;;;;22.03;100.00;99596.41;31140951;28;20046;-73
2022/08/19 00:46:04;;;;;;;20.60;11.33;;;;;;;21.98;100.00;99573.03;31167310;28;20050;-74
2022/08/19 01:01:07;;;;;;;17.15;12.35;;;;;;;22.05;100.00;99564.25;31150942;28;20513;-74
2022/08/19 02:23:31;;;;;;;22.35;14.23;;;;;;;21.38;100.00;99581.03;31051268;28;20795;-74
2022/08/19 02:38:34;;;;;;;24.63;15.43;;;;;;;21.20;100.00;99584.31;31217447;28;20072;-76
2022/08/19 02:53:37;;;;;;;;;;;;;;;21.15;100.00;99576.78;31187879;28;20061;-75
2022/08/19 03:08:44;;;;;;;25.50;14.13;;;;;;;21.40;100.00;99597.09;31193607;28;20398;-76
2022/08/19 03:23:46;;;;;;;24.33;14.70;;;;;;;21.49;100.00;99598.84;31195518;28;20085;-74
2022/08/19 03:38:54;;;;;;;20.73;14.97;;;;;;;21.84;100.00;99607.28;31186137;28;20053;-77
2022/08/19 03:54:03;;;;;;;26.98;17.25;;;;;;;22.07;100.00;99630.81;31128745;28;20049;-75
2022/08/19 04:09:08;;;;;;;35.90;16.52;;;;;;;22.21;100.00;99628.25;31139282;28;20046;-74
2022/08/19 04:24:11;;;;;;;34.47;19.23;;;;;;;22.66;100.00;99635.06;31129150;28;20054;-75
2022/08/19 04:39:16;;;;;;;35.08;20.27;;;;;;;23.26;100.00;99637.91;31124752;28;20081;-75
2022/08/19 04:54:22;;;;;;;47.50;26.35;;;;;;;23.77;100.00;99640.97;31178877;28;20487;-75
2022/08/19 05:09:39;;;;;;;29.35;19.63;;;;;;;24.13;100.00;99658.94;31153015;28;20057;-75
2022/08/19 05:25:00;;;;;;;28.45;18.42;;;;;;;24.85;98.72;99652.94;31174507;28;20057;-74
2022/08/19 05:40:14;;;;;;;30.15;18.60;;;;;;;25.84;94.34;99649.78;31233337;28;20071;-75
2022/08/19 05:55:16;;;;;;;37.53;20.20;;;;;;;26.46;90.76;99668.78;31204984;28;20041;-75
2022/08/19 06:10:18;;;;;;;29.60;17.55;;;;;;;27.14;84.61;99675.09;31190747;28;20053;-76
2022/08/19 06:25:20;;;;;;;32.53;16.25;;;;;;;27.61;79.86;99679.78;31196837;28;20058;-75
2022/08/19 06:40:22;;;;;;;22.05;14.32;;;;;;;28.66;74.44;99692.06;31206647;28;20058;-74
2022/08/19 06:55:24;;;;;;;20.15;12.73;;;;;;;29.07;70.00;99690.31;31204022;28;20046;-74
2022/08/19 07:10:26;;;;;;;21.88;15.05;;;;;;;30.38;62.68;99692.44;31177970;28;20060;-75
2022/08/19 07:25:28;;;;;;;13.70;8.32;;;;;;;30.71;60.58;99701.63;31192001;28;20061;-74
2022/08/19 07:40:33;;;;;;;17.13;8.07;;;;;;;31.32;56.87;99706.88;31196914;28;20041;-74
2022/08/19 07:55:35;;;;;;;12.23;7.90;;;;;;;31.04;51.25;99697.50;31206461;28;20514;-74
2022/08/19 08:10:43;;;;;;;11.38;7.38;;;;;;;31.65;50.44;99693.50;31201612;28;20588;-82
2022/08/19 08:25:57;;;;;;;12.65;8.18;;;;;;;32.03;48.87;99701.56;31227054;28;20058;-85
2022/08/19 08:41:25;;;;;;;14.20;8.07;;;;;;;32.39;48.51;99706.59;31218444;28;20077;-82
2022/08/19 08:56:28;;;;;;;12.45;8.02;;;;;;;32.98;45.11;99697.97;31204506;28;20053;-81
2022/08/19 09:11:56;;;;;;;14.55;9.32;;;;;;;33.72;43.90;99695.84;31213881;28;20050;-86
2022/08/19 09:26:58;;;;;;;11.98;9.35;;;;;;;33.93;43.91;99696.03;31197543;28;20054;-84
2022/08/19 09:42:03;;;;;;;10.88;8.13;;;;;;;33.37;43.83;99692.50;31081959;28;20045;-76
2022/08/19 09:57:05;;;;;;;7.22;5.78;;;;;;;34.08;41.05;99690.09;31100321;28;20048;-80
2022/08/19 10:12:08;;;;;;;8.55;5.60;;;;;;;33.97;40.94;99690.72;31040953;28;20046;-81
2022/08/19 10:27:13;;;;;;;5.07;3.90;;;;;;;34.26;35.47;99682.22;31069411;28;20056;-74
2022/08/19 10:42:18;;;;;;;8.10;4.63;;;;;;;34.60;34.51;99686.06;31063054;28;20396;-74
2022/08/19 10:57:23;;;;;;;8.93;5.00;;;;;;;35.55;36.51;99682.13;31072823;28;20057;-75
2022/08/19 11:12:40;;;;;;;;;;;;;;;34.99;37.39;99681.81;31073357;28;20045;-74
2022/08/19 11:27:44;;;;;;;7.78;5.95;;;;;;;35.54;37.80;99675.00;31080504;28;19928;-73
2022/08/19 11:42:55;;;;;;;8.02;5.43;;;;;;;33.58;40.08;99649.75;31086988;28;20077;-74
2022/08/19 11:57:57;;;;;;;9.85;7.05;;;;;;;32.29;44.65;99635.59;31081735;28;20492;-74
2022/08/19 12:12:59;;;;;;;9.43;7.18;;;;;;;31.39;47.36;99622.69;31082620;28;20045;-74
2022/08/19 12:28:03;;;;;;;11.07;6.90;;;;;;;31.05;48.53;99616.97;31063219;28;20054;-74
2022/08/19 12:43:07;;;;;;;13.52;5.97;;;;;;;30.80;46.94;99620.50;30960719;28;20093;-74
2022/08/19 12:58:12;;;;;;;8.85;6.07;;;;;;;30.59;44.19;99606.09;30957605;28;20050;-73
2022/08/19 13:13:14;;;;;;;6.63;5.65;;;;;;;30.28;44.72;99627.13;30956376;28;20054;-73
2022/08/19 13:28:16;;;;;;;8.65;6.32;;;;;;;30.00;45.69;99620.53;30977370;28;20065;-73
2022/08/19 13:43:23;;;;;;;9.02;6.43;;;;;;;29.84;47.29;99638.66;31088632;28;20132;-74
2022/08/19 13:58:25;;;;;;;11.25;6.97;;;;;;;29.66;48.24;99670.59;31094724;28;20049;-72
2022/08/19 14:13:27;;;;;;;16.58;6.93;;;;;;;29.32;52.44;99680.06;31095245;28;20050;-73
2022/08/19 14:28:30;;;;;;;13.45;7.40;;;;;;;28.08;58.95;99713.00;31104550;28;20062;-72
2022/08/19 14:43:32;;;;;;;12.35;8.27;;;;;;;27.03;64.47;99766.53;31100894;28;20471;-72
2022/08/19 14:58:34;;;;;;;9.60;5.97;;;;;;;25.94;71.10;99789.91;31090499;28;20057;-74
2022/08/19 15:13:39;;;;;;;8.93;4.82;;;;;;;25.49;68.74;99821.19;31102930;28;20506;-72
2022/08/19 15:28:42;;;;;;;9.27;4.88;;;;;;;25.11;68.92;99825.25;31117156;28;20049;-73
2022/08/19 15:43:44;;;;;;;5.50;3.22;;;;;;;25.00;64.86;99814.31;31093156;28;20332;-73
2022/08/19 16:14:08;;;;;;;9.43;4.93;;;;;;;24.80;64.98;99719.13;31090341;28;20060;-74
2022/08/19 16:29:11;;;;;;;7.68;4.63;;;;;;;24.91;64.38;99739.69;31075252;28;20541;-72
2022/08/19 16:44:16;;;;;;;8.40;5.40;;;;;;;24.04;69.56;99805.50;31059909;28;20157;-72
2022/08/19 16:59:18;;;;;;;10.23;6.05;;;;;;;23.13;82.66;99793.56;31096650;28;20108;-73
2022/08/19 17:14:20;;;;;;;12.53;6.57;;;;;;;23.05;89.91;99808.44;31095977;28;20479;-72
2022/08/19 17:29:22;;;;;;;10.33;7.87;;;;;;;22.97;95.41;99804.69;31096630;28;20045;-73
2022/08/19 17:44:24;;;;;;;14.90;9.57;;;;;;;23.15;96.21;99787.47;31094150;28;20100;-72
2022/08/19 17:59:27;;;;;;;26.57;15.43;;;;;;;23.05;98.33;99778.00;31068477;28;20062;-73
2022/08/19 18:14:33;;;;;;;23.70;13.43;;;;;;;23.09;96.48;99781.25;31016246;28;20508;-73
2022/08/19 18:29:36;;;;;;;60.10;33.25;;;;;;;23.18;94.93;99800.31;31052809;28;20391;-73
2022/08/19 19:00:03;;;;;;;21.58;12.02;;;;;;;23.10;93.51;99816.72;31083984;28;20050;-72
2022/08/19 19:15:06;;;;;;;15.00;9.70;;;;;;;23.16;94.11;99807.63;31095092;28;20060;-73
2022/08/19 19:30:08;;;;;;;13.32;8.80;;;;;;;22.93;96.39;99813.25;31097771;28;20100;-71
2022/08/19 19:45:10;;;;;;;13.20;9.90;;;;;;;22.89;96.51;99834.19;31065194;28;20431;-72
2022/08/19 20:00:15;;;;;;;16.37;10.20;;;;;;;22.97;96.93;99846.22;31041286;28;20294;-68
2022/08/19 20:15:17;;;;;;;15.18;10.23;;;;;;;22.94;97.19;99858.31;31063440;28;20062;-68
2022/08/19 20:30:21;;;;;;;18.70;12.20;;;;;;;22.89;98.30;99867.41;31055856;28;20101;-70
2022/08/19 20:45:24;;;;;;;37.50;24.38;;;;;;;22.61;98.31;99848.84;31051025;28;20058;-70
2022/08/19 21:00:34;;;;;;;12.63;9.18;;;;;;;22.64;96.06;99891.34;31046954;28;20081;-70
2022/08/19 21:15:39;;;;;;;14.57;10.10;;;;;;;22.72;94.84;99843.25;31060399;28;20406;-68
2022/08/19 21:30:42;;;;;;;20.30;10.52;;;;;;;22.68;94.75;99817.88;31043833;28;20065;-70
2022/08/19 21:45:46;;;;;;;15.25;10.05;;;;;;;22.59;93.50;99823.69;31039673;28;20072;-70
2022/08/19 22:00:48;;;;;;;11.73;8.23;;;;;;;22.39;92.75;99807.41;31062780;28;20061;-68
2022/08/19 22:15:50;;;;;;;;;;;;;;;22.33;94.24;99828.78;31046592;28;20041;-69
2022/08/19 22:30:52;;;;;;;11.65;8.55;;;;;;;22.09;94.59;99832.84;31057739;28;19922;-69
2022/08/19 22:45:55;;;;;;;18.30;10.60;;;;;;;21.97;96.54;99825.78;31078411;28;20396;-68
2022/08/19 23:00:57;;;;;;;18.27;12.10;;;;;;;21.93;96.26;99811.47;31054588;28;20052;-71
2022/08/19 23:15:59;;;;;;;20.33;13.03;;;;;;;21.83;97.45;99818.50;31059823;28;20092;-68
2022/08/19 23:31:02;;;;;;;21.02;13.98;;;;;;;21.73;100.00;99801.41;31033949;28;20054;-69
2022/08/19 23:46:05;;;;;;;;;;;;;;;21.69;100.00;99797.41;31066182;28;20054;-69
